Sidney, Illinois
Current Conditions -  °F | °C
As of 9:05 PM on Friday 21 Nov 2014 (Local Time) from KCMI Reporting Station
Overcast Overcast  
Wind Chill: 26°   Ceiling: 2600
Heat Index: 35°   Visibility: 10mi
Dew Point: 18°   Wind: 14mph
Humidity: 50%   Direction: 150°SSE
Pressure: 30.28"   Gusts: NA
Location:  40.03°N, 88.07°W
Report Text: KCMI 220305Z 15012KT 10SM BKN026 OVC033 02/M08 A3028 RMK AO2 T00171078 $
Loading
Personal Weather Stations






























Interactive Weather Map New forecast layout! Learn more

10-Day Weather Forecast

Advertisements
Track Severe Weather on mobile